createdAt,value
2017-02-01T00:00:54.769Z,49.87
2017-02-01T00:02:04.495Z,49.9
2017-02-01T00:03:14.668Z,49.9
2017-02-01T00:04:24.894Z,49.9
2017-02-01T00:05:34.619Z,49.87
2017-02-01T00:06:44.351Z,49.78
2017-02-01T00:07:53.641Z,49.99
2017-02-01T00:09:03.814Z,50.09
2017-02-01T00:10:14.048Z,49.99
2017-02-01T00:11:24.256Z,49.87
2017-02-01T00:12:33.987Z,49.99
2017-02-01T00:13:43.714Z,49.9
2017-02-01T00:14:53.909Z,49.52
2017-02-01T00:16:03.693Z,49.9
2017-02-01T00:17:13.867Z,50.07
2017-02-01T00:18:24.038Z,49.87
2017-02-01T00:19:33.779Z,49.9
2017-02-01T00:20:43.962Z,49.97
2017-02-01T00:21:53.743Z,49.87
2017-02-01T00:23:03.475Z,49.99
2017-02-01T00:24:13.209Z,49.9
2017-02-01T00:25:22.946Z,49.9
2017-02-01T00:26:32.678Z,49.9
2017-02-01T00:27:43.341Z,49.68
2017-02-01T00:28:53.070Z,49.49
2017-02-01T00:30:02.797Z,49.49
2017-02-01T00:31:12.526Z,49.33
2017-02-01T00:32:22.697Z,49.4
2017-02-01T00:33:32.477Z,49.62
2017-02-01T00:34:42.214Z,49.62
2017-02-01T00:35:52.397Z,49.59
2017-02-01T00:37:03.010Z,49.52
2017-02-01T00:38:12.748Z,49.52
2017-02-01T00:39:22.536Z,49.49
2017-02-01T00:40:32.273Z,49.23
2017-02-01T00:41:42.446Z,49.33
2017-02-01T00:42:51.736Z,49.62
2017-02-01T00:44:02.360Z,49.21
2017-02-01T00:45:12.145Z,49.33
2017-02-01T00:46:21.875Z,49.33
2017-02-01T00:47:32.056Z,49.33
2017-02-01T00:48:42.233Z,49.33
2017-02-01T00:49:52.406Z,49.3
2017-02-01T00:51:02.628Z,49.49
2017-02-01T00:52:12.371Z,49.49
2017-02-01T00:53:22.550Z,49.3
2017-02-01T00:54:32.286Z,49.33
2017-02-01T00:55:42.027Z,49.49
2017-02-01T00:56:52.245Z,49.33
2017-02-01T00:58:01.534Z,49.21
2017-02-01T00:59:11.267Z,49.23
2017-02-01T01:00:21.442Z,49.21
2017-02-01T01:01:31.616Z,49.3
2017-02-01T01:02:41.835Z,49.33
2017-02-01T01:03:51.597Z,49.4
2017-02-01T01:05:00.895Z,49.59
2017-02-01T01:06:11.068Z,49.3
2017-02-01T01:07:20.801Z,49.4
2017-02-01T01:08:30.141Z,49.3
2017-02-01T01:09:39.878Z,49.21
2017-02-01T01:10:49.609Z,49.49
2017-02-01T01:11:59.784Z,49.3
2017-02-01T01:13:10.393Z,49.59
2017-02-01T01:14:19.734Z,49.21
2017-02-01T01:15:29.468Z,49.21
2017-02-01T01:16:39.204Z,49.21
2017-02-01T01:17:48.941Z,49.3
2017-02-01T01:18:58.247Z,49.21
2017-02-01T01:20:08.039Z,49.3
2017-02-01T01:21:17.779Z,49.49
2017-02-01T01:22:27.948Z,49.49
2017-02-01T01:23:37.237Z,49.49
2017-02-01T01:24:46.960Z,49.33
2017-02-01T01:25:56.739Z,49.3
2017-02-01T01:27:06.914Z,49.4
2017-02-01T01:28:16.658Z,49.49
2017-02-01T01:29:26.832Z,49.49
2017-02-01T01:30:36.561Z,49.52
2017-02-01T01:31:46.782Z,49.3
2017-02-01T01:32:56.951Z,49.59
2017-02-01T01:34:06.683Z,49.49
2017-02-01T01:35:17.296Z,49.97
2017-02-01T01:36:27.031Z,50.07
2017-02-01T01:37:36.823Z,49.59
2017-02-01T01:38:46.558Z,49.4
2017-02-01T01:39:56.729Z,49.49
2017-02-01T01:41:06.458Z,49.97
2017-02-01T01:42:16.195Z,49.87
2017-02-01T01:43:26.425Z,50.07
2017-02-01T01:44:36.602Z,49.97
2017-02-01T01:45:45.927Z,49.97
2017-02-01T01:46:55.659Z,49.87
2017-02-01T01:48:06.272Z,49.59
2017-02-01T01:49:16.060Z,49.87
2017-02-01T01:50:26.231Z,49.87
2017-02-01T01:51:35.967Z,49.87
2017-02-01T01:52:46.173Z,50.07
2017-02-01T01:53:55.913Z,49.87
2017-02-01T01:55:06.146Z,49.97
2017-02-01T01:56:15.879Z,50.07
2017-02-01T01:57:26.520Z,49.87
2017-02-01T01:58:36.250Z,49.97
2017-02-01T01:59:46.428Z,49.87
2017-02-01T02:00:56.215Z,50.07
2017-02-01T02:02:06.390Z,49.87
2017-02-01T02:03:16.567Z,50.07
2017-02-01T02:04:27.188Z,49.87
2017-02-01T02:05:36.947Z,49.87
2017-02-01T02:06:46.729Z,49.97
2017-02-01T02:07:56.460Z,49.59
2017-02-01T02:09:06.644Z,49.87
2017-02-01T02:10:16.377Z,49.97
2017-02-01T02:11:26.554Z,49.97
2017-02-01T02:12:36.336Z,49.87
2017-02-01T02:13:45.613Z,49.87
2017-02-01T02:14:55.769Z,49.87
2017-02-01T02:16:05.052Z,50.07
2017-02-01T02:17:15.204Z,49.97
2017-02-01T02:18:25.850Z,49.87
2017-02-01T02:19:35.578Z,50.07
2017-02-01T02:20:45.300Z,49.87
2017-02-01T02:21:55.020Z,49.97
2017-02-01T02:23:05.176Z,49.97
2017-02-01T02:24:15.393Z,49.87
2017-02-01T02:25:25.989Z,50.07
2017-02-01T02:26:35.710Z,49.97
2017-02-01T02:27:46.306Z,49.87
2017-02-01T02:28:56.028Z,50.07
2017-02-01T02:30:05.795Z,50.07
2017-02-01T02:31:15.078Z,49.87
2017-02-01T02:32:25.233Z,49.87
2017-02-01T02:33:35.391Z,49.97
2017-02-01T02:34:45.560Z,49.87
2017-02-01T02:35:54.902Z,49.59
2017-02-01T02:37:04.620Z,50.07
2017-02-01T02:38:14.349Z,49.87
2017-02-01T02:39:24.066Z,49.97
2017-02-01T02:40:34.219Z,49.87
2017-02-01T02:41:44.095Z,49.97
2017-02-01T02:42:53.818Z,49.97
2017-02-01T02:44:03.107Z,49.97
2017-02-01T02:45:12.404Z,49.87
2017-02-01T02:46:21.688Z,49.87
2017-02-01T02:47:32.329Z,50.07
2017-02-01T02:48:42.491Z,49.87
2017-02-01T02:49:52.213Z,49.78
2017-02-01T02:51:01.958Z,49.97
2017-02-01T02:52:12.555Z,50.07
2017-02-01T02:53:23.195Z,50.07
2017-02-01T02:54:33.351Z,49.97
2017-02-01T02:55:42.628Z,49.59
2017-02-01T02:56:52.347Z,50.07
2017-02-01T02:58:02.507Z,50.07
2017-02-01T02:59:12.279Z,50.07
2017-02-01T03:00:22.876Z,50.07
2017-02-01T03:01:33.469Z,50.07
2017-02-01T03:02:44.067Z,49.87
2017-02-01T03:03:53.781Z,49.97
2017-02-01T03:05:03.545Z,49.97
2017-02-01T03:06:14.138Z,49.97
2017-02-01T03:07:23.853Z,49.87
2017-02-01T03:08:33.129Z,49.87
2017-02-01T03:09:43.751Z,50.07
2017-02-01T03:10:53.949Z,49.87
2017-02-01T03:12:03.246Z,49.87
2017-02-01T03:13:12.964Z,49.87
2017-02-01T03:14:23.564Z,50.07
2017-02-01T03:15:33.720Z,49.87
2017-02-01T03:16:43.498Z,50.07
2017-02-01T03:17:53.215Z,50.07
2017-02-01T03:19:03.373Z,50.07
2017-02-01T03:20:12.655Z,49.59
2017-02-01T03:21:22.817Z,49.97
2017-02-01T03:22:33.021Z,50.07
2017-02-01T03:23:42.737Z,49.49
2017-02-01T03:24:52.456Z,49.49
2017-02-01T03:26:02.608Z,50.07
2017-02-01T03:27:12.766Z,49.3
2017-02-01T03:28:23.411Z,49.3
2017-02-01T03:29:32.694Z,49.4
2017-02-01T03:30:42.419Z,50.07
2017-02-01T03:31:52.579Z,49.3
2017-02-01T03:33:02.752Z,49.4
2017-02-01T03:34:12.527Z,49.59
2017-02-01T03:35:21.814Z,50.07
2017-02-01T03:36:32.411Z,49.49
2017-02-01T03:37:42.130Z,49.4
2017-02-01T03:38:51.412Z,49.97
2017-02-01T03:40:01.211Z,49.3
2017-02-01T03:41:10.930Z,49.49
2017-02-01T03:42:20.651Z,49.21
2017-02-01T03:43:30.811Z,49.21
2017-02-01T03:44:40.998Z,49.21
2017-02-01T03:45:50.768Z,49.21
2017-02-01T03:47:00.047Z,49.3
2017-02-01T03:48:09.764Z,49.49
2017-02-01T03:49:19.489Z,49.3
2017-02-01T03:50:29.209Z,49.3
2017-02-01T03:51:38.541Z,49.87
2017-02-01T03:52:48.259Z,49.3
2017-02-01T03:53:57.546Z,49.3
2017-02-01T03:55:08.137Z,49.49
2017-02-01T03:56:17.855Z,49.3
2017-02-01T03:57:27.624Z,49.3
2017-02-01T03:58:36.940Z,49.3
2017-02-01T03:59:46.662Z,49.3
2017-02-01T04:00:56.813Z,49.21
2017-02-01T04:02:06.092Z,49.4
2017-02-01T04:03:16.299Z,49.3
2017-02-01T04:04:26.018Z,49.3
2017-02-01T04:05:36.176Z,49.3
2017-02-01T04:06:46.338Z,49.3
2017-02-01T04:07:56.490Z,49.3
2017-02-01T04:09:06.268Z,49.3
2017-02-01T04:10:16.419Z,49.21
2017-02-01T04:11:26.577Z,49.3
2017-02-01T04:12:36.741Z,49.3
2017-02-01T04:13:46.467Z,49.49
2017-02-01T04:14:55.798Z,49.49
2017-02-01T04:16:05.077Z,49.3
2017-02-01T04:17:15.231Z,49.21
2017-02-01T04:18:24.958Z,49.3
2017-02-01T04:19:34.243Z,49.3
2017-02-01T04:20:44.015Z,49.21
2017-02-01T04:21:53.730Z,49.21
2017-02-01T04:23:05.197Z,49.3
2017-02-01T04:24:14.489Z,49.3
2017-02-01T04:25:24.640Z,49.21
2017-02-01T04:26:35.282Z,49.21
2017-02-01T04:27:45.436Z,49.49
2017-02-01T04:28:55.158Z,49.21
2017-02-01T04:30:04.883Z,49.3
2017-02-01T04:31:14.164Z,49.21
2017-02-01T04:32:23.503Z,49.21
2017-02-01T04:33:34.099Z,49.21
2017-02-01T04:34:43.382Z,49.21
2017-02-01T04:35:53.540Z,49.21
2017-02-01T04:37:02.820Z,49.3
2017-02-01T04:38:13.031Z,49.4
2017-02-01T04:39:22.758Z,49.4
2017-02-01T04:40:33.350Z,49.21
2017-02-01T04:41:43.505Z,49.4
2017-02-01T04:42:53.667Z,49.21
2017-02-01T04:44:03.440Z,49.21
2017-02-01T04:45:13.161Z,49.4
2017-02-01T04:46:22.880Z,49.4
2017-02-01T04:47:32.597Z,49.21
2017-02-01T04:48:42.754Z,49.21
2017-02-01T04:49:53.401Z,49.4
2017-02-01T04:51:03.562Z,49.21
2017-02-01T04:52:12.865Z,49.21
2017-02-01T04:53:22.586Z,49.3
2017-02-01T04:54:32.308Z,49.21
2017-02-01T04:55:42.084Z,49.21
2017-02-01T04:56:51.807Z,49.3
2017-02-01T04:58:01.524Z,49.21
2017-02-01T04:59:11.245Z,49.3
2017-02-01T05:00:20.527Z,49.21
2017-02-01T05:01:30.734Z,49.4
2017-02-01T05:02:41.328Z,49.4
2017-02-01T05:03:51.053Z,49.21
2017-02-01T05:05:01.219Z,49.3
2017-02-01T05:06:11.371Z,49.3
2017-02-01T05:07:21.578Z,49.49
2017-02-01T05:08:30.863Z,49.21
2017-02-01T05:09:41.024Z,49.21
2017-02-01T05:10:50.308Z,49.21
2017-02-01T05:12:00.901Z,49.21
2017-02-01T05:13:11.261Z,49.4
2017-02-01T05:14:21.887Z,49.11
2017-02-01T05:15:32.474Z,49.21
2017-02-01T05:16:42.194Z,49.21
2017-02-01T05:17:52.784Z,49.21
2017-02-01T05:19:02.990Z,49.3
2017-02-01T05:20:12.270Z,49.4
2017-02-01T05:21:21.982Z,49.21
2017-02-01T05:22:31.697Z,49.4
2017-02-01T05:23:41.848Z,49.4
2017-02-01T05:24:52.052Z,49.49
2017-02-01T05:26:01.780Z,49.21
2017-02-01T05:27:11.501Z,49.21
2017-02-01T05:28:21.210Z,49.4
2017-02-01T05:29:30.938Z,49.21
2017-02-01T05:30:40.704Z,49.4
2017-02-01T05:31:49.994Z,49.4
2017-02-01T05:32:59.712Z,49.4
2017-02-01T05:34:09.869Z,49.21
2017-02-01T05:35:19.152Z,49.21
2017-02-01T05:36:29.354Z,49.4
2017-02-01T05:37:39.084Z,49.21
2017-02-01T05:38:48.797Z,49.3
2017-02-01T05:39:58.520Z,49.21
2017-02-01T05:41:08.235Z,49.4
2017-02-01T05:42:17.573Z,49.49
2017-02-01T05:43:27.293Z,49.49
2017-02-01T05:44:37.018Z,49.3
2017-02-01T05:45:46.740Z,49.4
2017-02-01T05:46:56.469Z,49.4
2017-02-01T05:48:05.799Z,49.4
2017-02-01T05:49:15.513Z,49.4
2017-02-01T05:50:25.236Z,49.4
2017-02-01T05:51:35.405Z,49.21
2017-02-01T05:52:45.123Z,49.21
2017-02-01T05:53:55.324Z,49.4
2017-02-01T05:55:05.488Z,49.4
2017-02-01T05:56:15.197Z,49.3
2017-02-01T05:57:25.790Z,49.21
2017-02-01T05:58:35.954Z,49.11
2017-02-01T05:59:45.713Z,49.3
2017-02-01T06:00:56.311Z,49.3
2017-02-01T06:02:06.044Z,49.4
2017-02-01T06:03:16.641Z,49.4
2017-02-01T06:04:26.362Z,49.49
2017-02-01T06:05:37.003Z,49.3
2017-02-01T06:06:46.722Z,49.21
2017-02-01T06:07:56.882Z,49.3
2017-02-01T06:09:07.041Z,49.4
2017-02-01T06:10:16.328Z,49.3
2017-02-01T06:11:26.103Z,49.4
2017-02-01T06:12:35.828Z,49.3
2017-02-01T06:13:45.976Z,49.11
2017-02-01T06:14:55.273Z,49.21
2017-02-01T06:16:04.988Z,49.21
2017-02-01T06:17:14.314Z,49.21
2017-02-01T06:18:24.036Z,49.21
2017-02-01T06:19:34.195Z,49.3
2017-02-01T06:20:43.920Z,49.11
2017-02-01T06:21:54.080Z,49.21
2017-02-01T06:23:03.412Z,49.21
2017-02-01T06:24:13.579Z,49.21
2017-02-01T06:25:23.296Z,49.21
2017-02-01T06:26:32.581Z,49.4
2017-02-01T06:27:43.181Z,49.3
2017-02-01T06:28:53.395Z,49.21
2017-02-01T06:30:03.131Z,49.21
2017-02-01T06:31:13.286Z,49.4
2017-02-01T06:32:23.006Z,49.21
2017-02-01T06:33:33.162Z,49.21
2017-02-01T06:34:42.933Z,49.11
2017-02-01T06:35:52.683Z,49.49
2017-02-01T06:37:02.409Z,49.49
2017-02-01T06:38:13.010Z,49.21
2017-02-01T06:39:22.293Z,49.21
2017-02-01T06:40:32.057Z,49.11
2017-02-01T06:41:41.775Z,49.59
2017-02-01T06:42:51.496Z,49.21
2017-02-01T06:44:00.803Z,49.21
2017-02-01T06:45:10.518Z,49.11
2017-02-01T06:46:20.717Z,49.3
2017-02-01T06:47:30.434Z,49.21
2017-02-01T06:48:40.588Z,49.59
2017-02-01T06:49:51.189Z,49.3
2017-02-01T06:51:00.908Z,49.21
2017-02-01T06:52:10.677Z,49.4
2017-02-01T06:53:19.960Z,49.4
2017-02-01T06:54:29.243Z,49.4
2017-02-01T06:55:39.398Z,49.4
2017-02-01T06:56:49.996Z,49.49
2017-02-01T06:58:00.645Z,49.3
2017-02-01T06:59:10.371Z,49.49
2017-02-01T07:00:20.124Z,49.4
2017-02-01T07:01:29.844Z,49.4
2017-02-01T07:02:39.571Z,49.4
2017-02-01T07:03:49.338Z,49.3
2017-02-01T07:04:59.057Z,49.4
2017-02-01T07:06:08.797Z,49.49
2017-02-01T07:07:18.079Z,49.3
2017-02-01T07:08:28.239Z,49.4
2017-02-01T07:09:37.574Z,49.4
2017-02-01T07:10:47.721Z,49.4
2017-02-01T07:11:57.899Z,49.4
2017-02-01T07:13:07.193Z,49.3
2017-02-01T07:14:17.345Z,49.4
2017-02-01T07:15:27.555Z,49.4
2017-02-01T07:16:36.837Z,49.4
2017-02-01T07:17:46.566Z,49.3
2017-02-01T07:18:56.747Z,49.3
2017-02-01T07:20:06.458Z,49.4
2017-02-01T07:21:16.225Z,49.21
2017-02-01T07:22:26.377Z,49.21
2017-02-01T07:23:36.540Z,49.4
2017-02-01T07:24:46.263Z,49.59
2017-02-01T07:25:55.542Z,49.59
2017-02-01T07:27:05.753Z,49.59
2017-02-01T07:28:16.351Z,49.4
2017-02-01T07:29:26.948Z,49.59
2017-02-01T07:30:37.545Z,49.21
2017-02-01T07:31:47.702Z,49.49
2017-02-01T07:32:57.911Z,49.4
2017-02-01T07:34:08.077Z,49.3
2017-02-01T07:35:17.380Z,49.4
2017-02-01T07:36:26.663Z,49.3
2017-02-01T07:37:36.386Z,49.59
2017-02-01T07:38:46.157Z,49.59
2017-02-01T07:39:56.311Z,49.49
2017-02-01T07:41:06.033Z,49.4
2017-02-01T07:42:16.209Z,49.3
2017-02-01T07:43:26.359Z,49.4
2017-02-01T07:44:36.137Z,49.49
2017-02-01T07:45:45.860Z,49.59
2017-02-01T07:46:56.027Z,49.49
2017-02-01T07:48:05.747Z,49.49
2017-02-01T07:49:16.348Z,49.3
2017-02-01T07:50:26.110Z,49.21
2017-02-01T07:51:35.388Z,49.11
2017-02-01T07:52:45.106Z,49.02
2017-02-01T07:53:54.829Z,49.4
2017-02-01T07:55:04.548Z,49.11
2017-02-01T07:56:14.330Z,49.3
2017-02-01T07:57:24.055Z,48.83
2017-02-01T07:58:33.775Z,48.83
2017-02-01T07:59:43.493Z,48.92
2017-02-01T08:00:53.222Z,48.83
2017-02-01T08:02:02.987Z,48.92
2017-02-01T08:03:12.275Z,48.92
2017-02-01T08:04:22.863Z,48.92
2017-02-01T08:05:33.022Z,49.11
2017-02-01T08:06:42.739Z,49.21
2017-02-01T08:07:52.509Z,49.11
2017-02-01T08:09:02.662Z,49.11
2017-02-01T08:10:11.933Z,49.11
2017-02-01T08:11:22.088Z,49.02
2017-02-01T08:12:31.805Z,49.11
2017-02-01T08:13:42.012Z,48.83
2017-02-01T08:14:51.296Z,49.02
2017-02-01T08:16:01.009Z,49.11
2017-02-01T08:17:11.169Z,49.21
2017-02-01T08:18:20.892Z,49.02
2017-02-01T08:19:30.815Z,49.23
2017-02-01T08:20:40.538Z,49.21
2017-02-01T08:21:50.691Z,48.85
2017-02-01T08:23:00.413Z,48.75
2017-02-01T08:24:10.568Z,48.66
2017-02-01T08:25:20.776Z,49.02
2017-02-01T08:26:30.499Z,48.75
2017-02-01T08:27:39.781Z,48.73
2017-02-01T08:28:49.937Z,48.44
2017-02-01T08:30:00.086Z,48.54
2017-02-01T08:31:10.305Z,48.37
2017-02-01T08:32:20.456Z,48.57
2017-02-01T08:33:30.622Z,48.37
2017-02-01T08:34:40.345Z,48.57
2017-02-01T08:35:50.528Z,48.35
2017-02-01T08:37:00.304Z,48.54
2017-02-01T08:38:09.594Z,49.04
2017-02-01T08:39:19.313Z,48.37
2017-02-01T08:40:29.036Z,48.83
2017-02-01T08:41:39.194Z,48.37
2017-02-01T08:42:48.960Z,48.63
2017-02-01T08:43:59.113Z,48.63
2017-02-01T08:45:08.838Z,48.57
2017-02-01T08:46:18.551Z,48.47
2017-02-01T08:47:28.273Z,48.75
2017-02-01T08:48:38.478Z,48.57
2017-02-01T08:49:48.195Z,48.35
2017-02-01T08:50:58.347Z,48.37
2017-02-01T08:52:08.510Z,48.37
2017-02-01T08:53:18.247Z,48.08
2017-02-01T08:54:28.447Z,48.47
2017-02-01T08:55:37.740Z,48.47
2017-02-01T08:56:47.894Z,48.28
2017-02-01T08:57:58.489Z,48.57
2017-02-01T08:59:08.208Z,48.66
2017-02-01T09:00:18.080Z,48.57
2017-02-01T09:01:27.806Z,48.47
2017-02-01T09:02:37.970Z,48.28
2017-02-01T09:03:47.252Z,48.18
2017-02-01T09:04:57.404Z,48.28
2017-02-01T09:06:08.069Z,48.08
2017-02-01T09:07:18.228Z,48.37
2017-02-01T09:08:28.385Z,48.18
2017-02-01T09:09:38.131Z,48.47
2017-02-01T09:10:47.849Z,48.28
2017-02-01T09:11:57.622Z,48.28
2017-02-01T09:13:07.347Z,48.18
2017-02-01T09:14:17.948Z,48.08
2017-02-01T09:15:28.107Z,48.28
2017-02-01T09:16:38.264Z,47.89
2017-02-01T09:17:47.606Z,48.08
2017-02-01T09:18:57.769Z,47.71
2017-02-01T09:20:07.057Z,47.89
2017-02-01T09:21:17.218Z,47.61
2017-02-01T09:22:27.390Z,48.08
2017-02-01T09:23:36.723Z,47.61
2017-02-01T09:24:46.883Z,48.08
2017-02-01T09:25:56.614Z,47.99
2017-02-01T09:27:06.768Z,47.99
2017-02-01T09:28:16.056Z,47.89
2017-02-01T09:29:25.821Z,47.99
2017-02-01T09:30:35.979Z,47.99
2017-02-01T09:31:45.702Z,48.08
2017-02-01T09:32:56.303Z,48.18
2017-02-01T09:34:05.592Z,47.99
2017-02-01T09:35:14.926Z,48.08
2017-02-01T09:36:24.658Z,47.89
2017-02-01T09:37:34.824Z,47.99
2017-02-01T09:38:44.991Z,48.08
2017-02-01T09:39:54.288Z,48.18
2017-02-01T09:41:03.725Z,47.89
2017-02-01T09:42:13.888Z,48.28
2017-02-01T09:43:23.172Z,48.28
2017-02-01T09:44:32.892Z,47.71
2017-02-01T09:45:42.192Z,47.61
2017-02-01T09:46:51.967Z,47.52
2017-02-01T09:48:01.253Z,47.61
2017-02-01T09:49:10.976Z,47.42
2017-02-01T09:50:20.259Z,47.32
2017-02-01T09:51:29.984Z,47.8
2017-02-01T09:52:40.196Z,47.8
2017-02-01T09:53:50.350Z,47.52
2017-02-01T09:54:59.639Z,47.23
2017-02-01T09:56:09.375Z,47.13
2017-02-01T09:57:19.970Z,47.42
2017-02-01T09:58:29.310Z,47.32
2017-02-01T09:59:39.906Z,47.32
2017-02-01T10:00:50.509Z,47.32
2017-02-01T10:02:00.226Z,47.42
2017-02-01T10:03:10.382Z,47.44
2017-02-01T10:04:21.024Z,47.61
2017-02-01T10:05:31.182Z,47.52
2017-02-01T10:06:40.912Z,47.52
2017-02-01T10:07:51.495Z,47.42
2017-02-01T10:09:01.660Z,47.42
2017-02-01T10:10:11.866Z,47.23
2017-02-01T10:11:21.586Z,47.03
2017-02-01T10:12:31.754Z,47.44
2017-02-01T10:13:42.341Z,47.61
2017-02-01T10:14:52.936Z,46.94
2017-02-01T10:16:03.145Z,46.97
2017-02-01T10:17:13.302Z,46.97
2017-02-01T10:18:23.042Z,46.97
2017-02-01T10:19:33.635Z,47.25
2017-02-01T10:20:43.802Z,47.06
2017-02-01T10:21:53.134Z,47.34
2017-02-01T10:23:04.073Z,46.84
2017-02-01T10:24:13.361Z,47.06
2017-02-01T10:25:23.088Z,47.25
2017-02-01T10:26:32.836Z,47.25
2017-02-01T10:27:42.602Z,47.16
2017-02-01T10:28:52.761Z,47.63
2017-02-01T10:30:02.046Z,47.06
2017-02-01T10:31:11.776Z,47.06
2017-02-01T10:32:21.502Z,46.68
2017-02-01T10:33:31.270Z,46.97
2017-02-01T10:34:40.992Z,46.97
2017-02-01T10:35:50.708Z,46.77
2017-02-01T10:37:00.871Z,46.77
2017-02-01T10:38:10.160Z,47.63
2017-02-01T10:39:20.369Z,46.77
2017-02-01T10:40:29.655Z,47.06
2017-02-01T10:41:38.956Z,47.16
2017-02-01T10:42:49.115Z,47.73
2017-02-01T10:43:58.410Z,47.44
2017-02-01T10:45:07.890Z,46.97
2017-02-01T10:46:17.619Z,47.25
2017-02-01T10:47:27.772Z,47.06
2017-02-01T10:48:37.499Z,46.87
2017-02-01T10:49:47.215Z,47.06
2017-02-01T10:50:57.425Z,46.87
2017-02-01T10:52:06.705Z,46.87
2017-02-01T10:53:16.895Z,46.97
2017-02-01T10:54:27.053Z,46.58
2017-02-01T10:55:36.764Z,47.16
2017-02-01T10:56:46.539Z,47.06
2017-02-01T10:57:56.691Z,47.16
2017-02-01T10:59:06.420Z,46.87
2017-02-01T11:00:16.565Z,46.77
2017-02-01T11:01:26.289Z,46.77
2017-02-01T11:02:36.085Z,47.06
2017-02-01T11:03:46.241Z,46.77
2017-02-01T11:04:56.416Z,46.77
2017-02-01T11:06:06.575Z,46.87
2017-02-01T11:07:16.737Z,46.77
2017-02-01T11:08:26.071Z,46.97
2017-02-01T11:09:35.351Z,46.87
2017-02-01T11:10:45.508Z,46.97
2017-02-01T11:11:55.234Z,46.87
2017-02-01T11:13:04.514Z,46.77
2017-02-01T11:14:14.727Z,46.87
2017-02-01T11:15:24.014Z,46.77
2017-02-01T11:16:33.742Z,47.06
2017-02-01T11:17:43.464Z,46.77
2017-02-01T11:18:53.183Z,46.68
2017-02-01T11:20:03.814Z,46.48
2017-02-01T11:21:13.534Z,46.3
2017-02-01T11:22:23.253Z,46.48
2017-02-01T11:23:32.972Z,46.87
2017-02-01T11:24:42.696Z,46.3
2017-02-01T11:25:53.007Z,46.39
2017-02-01T11:27:02.298Z,46.39
2017-02-01T11:28:12.024Z,46.58
2017-02-01T11:29:22.179Z,46.87
2017-02-01T11:30:31.894Z,46.58
2017-02-01T11:31:41.661Z,46.77
2017-02-01T11:32:51.386Z,46.77
2017-02-01T11:34:01.111Z,46.77
2017-02-01T11:35:11.276Z,46.87
2017-02-01T11:36:21.440Z,46.97
2017-02-01T11:37:31.667Z,46.89
2017-02-01T11:38:41.399Z,46.8
2017-02-01T11:39:51.119Z,46.7
2017-02-01T11:41:00.836Z,46.32
2017-02-01T11:42:11.426Z,46.32
2017-02-01T11:43:20.755Z,46.42
2017-02-01T11:44:30.916Z,46.61
2017-02-01T11:45:40.201Z,46.32
2017-02-01T11:46:50.794Z,46.51
2017-02-01T11:48:00.542Z,46.51
2017-02-01T11:49:10.308Z,46.34
2017-02-01T11:50:20.469Z,46.61
2017-02-01T11:51:30.183Z,46.44
2017-02-01T11:52:39.472Z,46.44
2017-02-01T11:53:48.792Z,46.53
2017-02-01T11:54:59.000Z,46.34
2017-02-01T11:56:09.169Z,46.82
2017-02-01T11:57:19.337Z,45.87
2017-02-01T11:58:29.056Z,46.63
2017-02-01T11:59:39.221Z,46.44
2017-02-01T12:00:49.428Z,46.15
2017-02-01T12:01:59.584Z,46.15
2017-02-01T12:03:09.757Z,46.08
2017-02-01T12:04:19.049Z,46.37
2017-02-01T12:05:28.770Z,46.17
2017-02-01T12:06:38.545Z,46.17
2017-02-01T12:07:48.261Z,45.7
2017-02-01T12:08:57.983Z,45.98
2017-02-01T12:10:08.135Z,45.6
2017-02-01T12:11:17.863Z,45.7
2017-02-01T12:12:27.629Z,45.79
2017-02-01T12:13:37.851Z,45.7
2017-02-01T12:14:47.579Z,45.6
2017-02-01T12:15:57.296Z,45.34
2017-02-01T12:17:07.016Z,45.41
2017-02-01T12:18:17.233Z,45.53
2017-02-01T12:19:26.520Z,45.43
2017-02-01T12:20:36.672Z,45.24
2017-02-01T12:21:47.268Z,45.53
2017-02-01T12:22:56.995Z,45.62
2017-02-01T12:24:06.763Z,45.15
2017-02-01T12:25:16.057Z,45.15
2017-02-01T12:26:25.340Z,45.05
2017-02-01T12:27:35.062Z,44.79
2017-02-01T12:28:45.658Z,44.86
2017-02-01T12:29:56.304Z,44.76
2017-02-01T12:31:06.896Z,44.88
2017-02-01T12:32:16.619Z,45.17
2017-02-01T12:33:26.777Z,45.17
2017-02-01T12:34:37.371Z,44.4
2017-02-01T12:35:47.170Z,44.21
2017-02-01T12:36:56.456Z,44.4
2017-02-01T12:38:05.739Z,43.92
2017-02-01T12:39:15.020Z,44.12
2017-02-01T12:40:24.307Z,44.21
2017-02-01T12:41:33.638Z,44.33
2017-02-01T12:42:44.239Z,44.13
2017-02-01T12:43:54.845Z,43.66
2017-02-01T12:45:05.435Z,43.47
2017-02-01T12:46:16.031Z,43.56
2017-02-01T12:47:26.677Z,43.66
2017-02-01T12:48:36.845Z,43.85
2017-02-01T12:49:46.564Z,43.18
2017-02-01T12:50:56.799Z,43.47
2017-02-01T12:52:06.974Z,43.56
2017-02-01T12:53:17.193Z,43.37
2017-02-01T12:54:27.386Z,43.66
2017-02-01T12:55:37.548Z,43.59
2017-02-01T12:56:47.267Z,43.59
2017-02-01T12:57:57.429Z,43.59
2017-02-01T12:59:07.208Z,43.59
2017-02-01T13:01:25.315Z,43.49
2017-02-01T13:02:35.907Z,43.49
2017-02-01T13:03:45.628Z,43.59
2017-02-01T13:04:55.391Z,43.39
2017-02-01T13:06:05.977Z,43.3
2017-02-01T13:07:15.704Z,43.49
2017-02-01T13:08:25.855Z,43.39
2017-02-01T13:09:36.010Z,43.2
2017-02-01T13:10:46.209Z,43.1
2017-02-01T13:11:56.385Z,43.01
2017-02-01T13:13:05.666Z,42.91
2017-02-01T13:14:14.949Z,42.91
2017-02-01T13:15:24.236Z,42.72
2017-02-01T13:16:34.435Z,42.63
2017-02-01T13:17:45.015Z,42.74
2017-02-01T13:18:54.734Z,42.74
2017-02-01T13:20:04.459Z,42.84
2017-02-01T13:21:15.043Z,42.84
2017-02-01T13:22:25.015Z,42.84
2017-02-01T13:23:34.292Z,42.74
2017-02-01T13:24:44.009Z,42.27
2017-02-01T13:25:53.727Z,42.46
2017-02-01T13:27:03.009Z,42.36
2017-02-01T13:28:12.781Z,42.55
2017-02-01T13:29:22.925Z,42.74
2017-02-01T13:30:33.525Z,42.65
2017-02-01T13:31:42.802Z,42.84
2017-02-01T13:32:52.516Z,42.46
2017-02-01T13:34:02.284Z,42.17
2017-02-01T13:35:12.004Z,41.97
2017-02-01T13:36:22.169Z,42.1
2017-02-01T13:37:31.887Z,42.17
2017-02-01T13:38:41.609Z,42.1
2017-02-01T13:39:51.807Z,41.9
2017-02-01T13:41:02.399Z,42.1
2017-02-01T13:42:12.120Z,42.1
2017-02-01T13:43:23.159Z,42
2017-02-01T13:44:32.450Z,42
2017-02-01T13:45:42.653Z,42.1
2017-02-01T13:46:51.941Z,42
2017-02-01T13:48:02.123Z,42.38
2017-02-01T13:49:11.845Z,42.1
2017-02-01T13:50:21.565Z,42
2017-02-01T13:51:32.208Z,42.38
2017-02-01T13:52:41.929Z,42
2017-02-01T13:53:51.642Z,42.29
2017-02-01T13:55:01.368Z,42.1
2017-02-01T13:56:11.090Z,42
2017-02-01T13:57:20.861Z,41.8
2017-02-01T13:58:30.608Z,41.8
2017-02-01T13:59:40.325Z,41.9
2017-02-01T14:00:50.496Z,41.9
2017-02-01T14:02:00.218Z,41.71
2017-02-01T14:03:10.864Z,41.9
2017-02-01T14:04:20.145Z,41.9
2017-02-01T14:05:29.868Z,41.8
2017-02-01T14:06:40.040Z,41.8
2017-02-01T14:07:50.194Z,41.61
2017-02-01T14:08:59.963Z,41.8
2017-02-01T14:10:10.120Z,42
2017-02-01T14:11:19.404Z,41.8
2017-02-01T14:12:29.119Z,41.9
2017-02-01T14:13:38.400Z,41.52
2017-02-01T14:14:47.735Z,41.93
2017-02-01T14:15:57.451Z,41.93
2017-02-01T14:17:07.174Z,41.93
2017-02-01T14:18:16.893Z,41.93
2017-02-01T14:19:27.063Z,41.83
2017-02-01T14:20:37.266Z,41.73
2017-02-01T14:21:47.019Z,41.63
2017-02-01T14:22:57.617Z,41.73
2017-02-01T14:24:07.332Z,41.83
2017-02-01T14:25:17.049Z,41.83
2017-02-01T14:26:26.813Z,41.83
2017-02-01T14:27:37.403Z,42.11
2017-02-01T14:28:47.125Z,42.11
2017-02-01T14:29:56.837Z,41.93
2017-02-01T14:31:08.170Z,42.21
2017-02-01T14:32:20.635Z,42.5
2017-02-01T14:33:33.358Z,42.69
2017-02-01T14:34:45.850Z,42.5
2017-02-01T14:35:58.688Z,42.4
2017-02-01T14:37:10.904Z,42.3
2017-02-01T14:38:23.151Z,42.5
2017-02-01T14:39:35.375Z,42.79
2017-02-01T14:40:47.756Z,42.98
2017-02-01T14:41:59.616Z,42.79
2017-02-01T14:43:09.603Z,42.88
2017-02-01T14:44:18.886Z,42.69
2017-02-01T14:45:28.162Z,42.98
2017-02-01T14:46:37.444Z,43.27
2017-02-01T14:47:47.170Z,43.17
2017-02-01T14:48:56.499Z,43.38
2017-02-01T14:50:06.222Z,43.46
2017-02-01T14:51:15.935Z,43.36
2017-02-01T14:52:25.649Z,43.46
2017-02-01T14:53:35.811Z,43.27
2017-02-01T14:54:46.008Z,43.67
2017-02-01T14:55:56.595Z,43.57
2017-02-01T14:57:06.311Z,43.84
2017-02-01T14:58:16.474Z,43.67
2017-02-01T14:59:26.192Z,43.87
2017-02-01T15:00:35.960Z,43.77
2017-02-01T15:01:46.117Z,43.57
2017-02-01T15:02:55.441Z,43.67
2017-02-01T15:04:05.155Z,43.57
2017-02-01T15:05:14.869Z,43.67
2017-02-01T15:06:24.200Z,43.57
2017-02-01T15:07:33.923Z,43.57
2017-02-01T15:08:43.635Z,43.77
2017-02-01T15:09:53.797Z,43.96